createdAt,value
2018-12-19T00:01:13.147Z,4.10
2018-12-19T00:03:41.425Z,4.00
2018-12-19T00:06:09.710Z,4.00
2018-12-19T00:08:37.894Z,4.00
2018-12-19T00:11:06.172Z,3.90
2018-12-19T00:13:34.651Z,3.90
2018-12-19T00:16:03.035Z,3.90
2018-12-19T00:18:31.286Z,3.90
2018-12-19T00:20:59.551Z,3.90
2018-12-19T00:23:27.765Z,3.80
2018-12-19T00:25:55.989Z,3.80
2018-12-19T00:28:24.239Z,3.80
2018-12-19T00:30:52.412Z,3.90
2018-12-19T00:33:20.659Z,3.80
2018-12-19T00:35:48.864Z,3.70
2018-12-19T00:38:17.208Z,3.80
2018-12-19T00:40:45.504Z,3.80
2018-12-19T00:43:13.774Z,3.80
2018-12-19T00:45:41.981Z,3.80
2018-12-19T00:48:10.336Z,3.80
2018-12-19T00:50:38.643Z,3.70
2018-12-19T00:53:07.015Z,3.80
2018-12-19T00:55:35.460Z,3.80
2018-12-19T00:58:03.830Z,3.70
2018-12-19T01:00:33.888Z,3.70
2018-12-19T01:03:02.397Z,3.70
2018-12-19T01:05:30.829Z,3.70
2018-12-19T01:07:59.213Z,3.60
2018-12-19T01:10:27.480Z,3.60
2018-12-19T01:12:55.717Z,3.60
2018-12-19T01:15:23.956Z,3.50
2018-12-19T01:17:52.163Z,3.60
2018-12-19T01:20:20.404Z,3.50
2018-12-19T01:22:48.653Z,3.60
2018-12-19T01:25:16.919Z,3.50
2018-12-19T01:27:45.984Z,3.50
2018-12-19T01:30:14.200Z,3.50
2018-12-19T01:32:42.453Z,3.40
2018-12-19T01:35:11.172Z,3.40
2018-12-19T01:37:39.381Z,3.40
2018-12-19T01:40:07.729Z,3.50
2018-12-19T01:42:36.025Z,3.50
2018-12-19T01:45:06.134Z,3.50
2018-12-19T01:47:34.410Z,3.50
2018-12-19T01:50:02.605Z,3.40
2018-12-19T01:52:30.837Z,3.40
2018-12-19T01:54:59.068Z,3.40
2018-12-19T01:57:27.345Z,3.30
2018-12-19T01:59:55.567Z,3.30
2018-12-19T02:02:24.055Z,3.30
2018-12-19T02:04:52.276Z,3.30
2018-12-19T02:07:20.871Z,3.30
2018-12-19T02:09:49.256Z,3.30
2018-12-19T02:12:17.503Z,3.30
2018-12-19T02:14:45.818Z,3.30
2018-12-19T02:17:36.960Z,3.30
2018-12-19T02:20:05.594Z,3.30
2018-12-19T02:22:33.899Z,3.30
2018-12-19T02:25:02.300Z,3.30
2018-12-19T02:27:30.557Z,3.40
2018-12-19T02:29:58.825Z,3.40
2018-12-19T02:32:27.142Z,3.40
2018-12-19T02:34:55.348Z,3.40
2018-12-19T02:37:23.612Z,3.30
2018-12-19T02:39:51.841Z,3.40
2018-12-19T02:42:20.135Z,3.40
2018-12-19T02:44:48.362Z,3.30
2018-12-19T02:47:16.618Z,3.40
2018-12-19T02:49:44.878Z,3.40
2018-12-19T02:52:13.241Z,3.40
2018-12-19T02:54:41.619Z,3.40
2018-12-19T02:57:11.566Z,3.40
2018-12-19T02:59:40.231Z,3.40
2018-12-19T03:02:08.415Z,3.40
2018-12-19T03:04:36.887Z,3.50
2018-12-19T03:07:05.095Z,3.50
2018-12-19T03:09:33.616Z,3.50
2018-12-19T03:12:01.998Z,3.50
2018-12-19T03:14:30.201Z,3.50
2018-12-19T03:16:58.399Z,3.50
2018-12-19T03:19:26.750Z,3.50
2018-12-19T03:21:54.954Z,3.40
2018-12-19T03:24:23.184Z,3.50
2018-12-19T03:26:51.479Z,3.40
2018-12-19T03:29:19.768Z,3.50
2018-12-19T03:31:48.062Z,3.50
2018-12-19T03:34:16.273Z,3.40
2018-12-19T03:36:44.524Z,3.50
2018-12-19T03:39:12.746Z,3.50
2018-12-19T03:41:41.395Z,3.40
2018-12-19T03:44:09.775Z,3.50
2018-12-19T03:46:38.023Z,3.40
2018-12-19T03:49:06.232Z,3.50
2018-12-19T03:51:34.423Z,3.40
2018-12-19T03:54:02.617Z,3.40
2018-12-19T03:56:30.894Z,3.40
2018-12-19T03:58:59.087Z,3.40
2018-12-19T04:01:27.363Z,3.40
2018-12-19T04:03:55.690Z,3.30
2018-12-19T04:06:23.940Z,3.30
2018-12-19T04:08:52.214Z,3.30
2018-12-19T04:11:20.433Z,3.30
2018-12-19T04:13:48.624Z,3.40
2018-12-19T04:16:16.844Z,3.30
2018-12-19T04:18:45.119Z,3.30
2018-12-19T04:21:13.333Z,3.30
2018-12-19T04:23:41.541Z,3.30
2018-12-19T04:26:09.773Z,3.20
2018-12-19T04:28:38.194Z,3.30
2018-12-19T04:31:06.469Z,3.30
2018-12-19T04:33:34.673Z,3.30
2018-12-19T04:36:03.223Z,3.30
2018-12-19T04:38:31.622Z,3.30
2018-12-19T04:41:00.299Z,3.20
2018-12-19T04:43:28.507Z,3.30
2018-12-19T04:45:56.960Z,3.20
2018-12-19T04:48:25.228Z,3.20
2018-12-19T04:50:53.451Z,3.20
2018-12-19T04:53:22.065Z,3.20
2018-12-19T04:55:50.423Z,3.20
2018-12-19T04:58:18.659Z,3.20
2018-12-19T05:00:46.931Z,3.20
2018-12-19T05:03:15.157Z,3.20
2018-12-19T05:05:43.374Z,3.10
2018-12-19T05:08:11.581Z,3.10
2018-12-19T05:10:39.831Z,3.00
2018-12-19T05:13:08.044Z,3.10
2018-12-19T05:15:37.899Z,3.00
2018-12-19T05:18:06.371Z,3.00
2018-12-19T05:20:34.542Z,3.00
2018-12-19T05:23:02.803Z,3.00
2018-12-19T05:25:31.009Z,3.00
2018-12-19T05:27:59.397Z,3.10
2018-12-19T05:30:27.600Z,3.10
2018-12-19T05:32:55.969Z,3.00
2018-12-19T05:35:24.178Z,3.00
2018-12-19T05:37:52.422Z,3.00
2018-12-19T05:40:20.883Z,3.00
2018-12-19T05:42:49.124Z,3.00
2018-12-19T05:45:17.420Z,3.00
2018-12-19T05:47:45.640Z,3.00
2018-12-19T05:50:15.074Z,3.00
2018-12-19T05:52:43.310Z,3.00
2018-12-19T05:55:11.571Z,3.10
2018-12-19T05:57:39.928Z,3.10
2018-12-19T06:00:08.439Z,3.00
2018-12-19T06:02:36.714Z,3.00
2018-12-19T06:05:05.518Z,3.10
2018-12-19T06:07:33.779Z,3.00
2018-12-19T06:10:02.036Z,3.00
2018-12-19T06:12:30.232Z,3.10
2018-12-19T06:14:58.585Z,3.10
2018-12-19T06:17:26.838Z,3.10
2018-12-19T06:19:55.065Z,3.10
2018-12-19T06:22:23.301Z,3.10
2018-12-19T06:24:51.602Z,3.10
2018-12-19T06:27:19.795Z,3.10
2018-12-19T06:29:48.148Z,3.10
2018-12-19T06:32:16.380Z,3.20
2018-12-19T06:34:44.620Z,3.20
2018-12-19T06:37:12.908Z,3.10
2018-12-19T06:39:41.123Z,3.10
2018-12-19T06:42:09.326Z,3.20
2018-12-19T06:44:37.557Z,3.10
2018-12-19T06:47:05.798Z,3.10
2018-12-19T06:49:34.262Z,3.10
2018-12-19T06:52:02.654Z,3.00
2018-12-19T06:54:30.849Z,3.10
2018-12-19T06:56:59.086Z,3.10
2018-12-19T06:59:27.592Z,3.00
2018-12-19T07:01:55.832Z,3.00
2018-12-19T07:04:24.229Z,3.00
2018-12-19T07:06:52.611Z,3.00
2018-12-19T07:09:20.997Z,3.10
2018-12-19T07:11:49.371Z,3.00
2018-12-19T07:14:17.655Z,3.00
2018-12-19T07:16:46.132Z,3.10
2018-12-19T07:19:14.406Z,3.10
2018-12-19T07:21:42.588Z,3.10
2018-12-19T07:24:10.962Z,3.10
2018-12-19T07:26:39.152Z,3.10
2018-12-19T07:29:07.402Z,3.10
2018-12-19T07:31:35.714Z,3.10
2018-12-19T07:34:03.954Z,3.10
2018-12-19T07:36:32.216Z,3.20
2018-12-19T07:39:00.431Z,3.10
2018-12-19T07:41:28.781Z,3.00
2018-12-19T07:43:57.178Z,3.10
2018-12-19T07:46:25.393Z,3.10
2018-12-19T07:48:53.714Z,3.10
2018-12-19T07:51:21.921Z,3.10
2018-12-19T07:53:50.238Z,3.20
2018-12-19T07:56:20.420Z,3.30
2018-12-19T07:58:48.851Z,3.20
2018-12-19T08:01:17.461Z,3.20
2018-12-19T08:03:45.787Z,3.20
2018-12-19T08:06:14.026Z,3.20
2018-12-19T08:08:42.219Z,3.20
2018-12-19T08:11:10.579Z,3.20
2018-12-19T08:13:38.728Z,3.20
2018-12-19T08:16:07.022Z,3.20
2018-12-19T08:18:35.231Z,3.20
2018-12-19T08:21:03.479Z,3.30
2018-12-19T08:23:31.848Z,3.30
2018-12-19T08:26:00.059Z,3.30
2018-12-19T08:28:28.261Z,3.40
2018-12-19T08:30:56.744Z,3.40
2018-12-19T08:33:24.953Z,3.40
2018-12-19T08:35:53.267Z,3.30
2018-12-19T08:38:21.512Z,3.30
2018-12-19T08:40:49.826Z,3.40
2018-12-19T08:43:18.073Z,3.40
2018-12-19T08:45:46.664Z,3.30
2018-12-19T08:48:15.129Z,3.30
2018-12-19T08:50:43.341Z,3.40
2018-12-19T08:53:11.624Z,3.40
2018-12-19T08:55:39.945Z,3.40
2018-12-19T08:58:08.237Z,3.40
2018-12-19T09:00:36.624Z,3.50
2018-12-19T09:03:04.871Z,3.50
2018-12-19T09:05:33.237Z,3.50
2018-12-19T09:08:01.549Z,3.50
2018-12-19T09:10:29.776Z,3.50
2018-12-19T09:12:58.013Z,3.50
2018-12-19T09:15:31.885Z,3.50
2018-12-19T09:18:00.293Z,3.50
2018-12-19T09:20:28.476Z,3.50
2018-12-19T09:22:56.728Z,3.50
2018-12-19T09:25:26.889Z,3.60
2018-12-19T09:27:55.345Z,3.60
2018-12-19T09:30:23.623Z,3.60
2018-12-19T09:32:52.626Z,3.60
2018-12-19T09:35:21.006Z,3.60
2018-12-19T09:37:49.270Z,3.60
2018-12-19T09:40:17.515Z,3.60
2018-12-19T09:42:45.731Z,3.60
2018-12-19T09:45:14.074Z,3.60
2018-12-19T09:47:42.451Z,3.70
2018-12-19T09:50:10.963Z,3.70
2018-12-19T09:52:39.131Z,3.70
2018-12-19T09:55:07.385Z,3.70
2018-12-19T09:57:36.001Z,3.70
2018-12-19T10:00:06.964Z,3.80
2018-12-19T10:02:35.254Z,3.80
2018-12-19T10:05:03.901Z,3.80
2018-12-19T10:07:32.055Z,3.80
2018-12-19T10:10:00.344Z,3.80
2018-12-19T10:12:28.612Z,3.80
2018-12-19T10:14:56.812Z,3.80
2018-12-19T10:17:25.058Z,3.80
2018-12-19T10:19:53.271Z,3.90
2018-12-19T10:22:27.198Z,3.90
2018-12-19T10:25:01.259Z,3.90
2018-12-19T10:27:29.656Z,4.00
2018-12-19T10:29:57.868Z,4.00
2018-12-19T10:32:28.021Z,3.90
2018-12-19T10:34:56.322Z,3.90
2018-12-19T10:37:26.238Z,3.90
2018-12-19T10:39:55.035Z,3.90
2018-12-19T10:42:23.247Z,3.90
2018-12-19T10:44:51.482Z,4.00
2018-12-19T10:47:19.840Z,4.00
2018-12-19T10:49:48.066Z,3.90
2018-12-19T10:52:16.337Z,3.90
2018-12-19T10:54:44.584Z,4.00
2018-12-19T10:57:13.813Z,4.00
2018-12-19T10:59:42.029Z,4.00
2018-12-19T11:02:10.355Z,3.90
2018-12-19T11:04:38.555Z,3.90
2018-12-19T11:07:06.826Z,4.00
2018-12-19T11:09:35.066Z,4.00
2018-12-19T11:12:03.401Z,4.00
2018-12-19T11:14:31.927Z,3.90
2018-12-19T11:17:00.408Z,4.00
2018-12-19T11:19:28.656Z,3.90
2018-12-19T11:21:56.982Z,3.90
2018-12-19T11:24:25.215Z,4.00
2018-12-19T11:26:53.721Z,4.00
2018-12-19T11:29:21.944Z,4.00
2018-12-19T11:31:50.115Z,4.00
2018-12-19T11:34:18.374Z,4.00
2018-12-19T11:36:46.591Z,4.00
2018-12-19T11:39:14.760Z,4.00
2018-12-19T11:41:43.004Z,4.10
2018-12-19T11:44:11.217Z,4.10
2018-12-19T11:46:39.415Z,4.10
2018-12-19T11:49:07.729Z,4.10
2018-12-19T11:51:35.914Z,4.00
2018-12-19T11:54:04.438Z,4.00
2018-12-19T11:56:32.619Z,4.10
2018-12-19T11:59:00.896Z,4.10
2018-12-19T12:01:29.068Z,4.10
2018-12-19T12:03:57.284Z,4.10
2018-12-19T12:06:25.483Z,4.20
2018-12-19T12:08:54.017Z,4.20
2018-12-19T12:11:22.293Z,4.20
2018-12-19T12:13:50.426Z,4.20
2018-12-19T12:16:18.655Z,4.10
2018-12-19T12:18:46.829Z,4.20
2018-12-19T12:21:15.032Z,4.20
2018-12-19T12:23:47.342Z,4.20
2018-12-19T12:26:13.551Z,4.30
2018-12-19T12:28:41.719Z,4.30
2018-12-19T12:31:10.032Z,4.30
2018-12-19T12:33:38.185Z,4.30
2018-12-19T12:36:06.664Z,4.30
2018-12-19T12:38:34.989Z,4.20
2018-12-19T12:41:03.227Z,4.30
2018-12-19T12:43:31.425Z,4.30
2018-12-19T12:45:59.634Z,4.30
2018-12-19T12:48:27.907Z,4.30
2018-12-19T12:50:56.099Z,4.40
2018-12-19T12:53:24.438Z,4.40
2018-12-19T12:55:53.351Z,4.40
2018-12-19T12:58:21.542Z,4.40
2018-12-19T13:00:49.874Z,4.30
2018-12-19T13:03:18.069Z,4.30
2018-12-19T13:05:46.360Z,4.40
2018-12-19T13:08:14.574Z,4.40
2018-12-19T13:10:42.914Z,4.40
2018-12-19T13:13:11.117Z,4.40
2018-12-19T13:15:41.128Z,4.40
2018-12-19T13:18:09.347Z,4.40
2018-12-19T13:20:37.558Z,4.40
2018-12-19T13:23:05.804Z,4.40
2018-12-19T13:25:34.164Z,4.50
2018-12-19T13:28:02.756Z,4.50
2018-12-19T13:30:30.965Z,4.50
2018-12-19T13:32:59.182Z,4.50
2018-12-19T13:35:27.428Z,4.50
2018-12-19T13:37:55.653Z,4.50
2018-12-19T13:40:23.828Z,4.50
2018-12-19T13:42:52.121Z,4.40
2018-12-19T13:45:20.319Z,4.40
2018-12-19T13:47:48.687Z,4.40
2018-12-19T13:50:16.850Z,4.40
2018-12-19T13:52:45.122Z,4.50
2018-12-19T13:55:13.458Z,4.50
2018-12-19T13:57:41.639Z,4.60
2018-12-19T14:00:10.159Z,4.60
2018-12-19T14:02:38.891Z,4.60
2018-12-19T14:05:07.968Z,4.60
2018-12-19T14:07:36.165Z,4.60
2018-12-19T14:10:05.445Z,4.60
2018-12-19T14:12:33.694Z,4.60
2018-12-19T14:15:01.922Z,4.60
2018-12-19T14:17:30.111Z,4.60
2018-12-19T14:19:58.539Z,4.50
2018-12-19T14:22:26.696Z,4.60
2018-12-19T14:24:54.922Z,4.60
2018-12-19T14:27:23.115Z,4.70
2018-12-19T14:29:51.423Z,4.70
2018-12-19T14:32:19.630Z,4.70
2018-12-19T14:34:47.848Z,4.70
2018-12-19T14:37:16.368Z,4.70
2018-12-19T14:39:44.619Z,4.70
2018-12-19T14:42:18.894Z,4.70
2018-12-19T14:44:43.341Z,4.80
2018-12-19T14:47:11.646Z,4.90
2018-12-19T14:49:40.098Z,4.80
2018-12-19T14:52:08.345Z,4.80
2018-12-19T14:54:36.617Z,4.80
2018-12-19T14:57:05.937Z,4.80
2018-12-19T14:59:34.343Z,4.90
2018-12-19T15:02:02.594Z,4.80
2018-12-19T15:04:30.769Z,4.80
2018-12-19T15:06:58.944Z,4.80
2018-12-19T15:09:27.207Z,4.80
2018-12-19T15:11:56.987Z,4.70
2018-12-19T15:14:25.263Z,4.80
2018-12-19T15:16:53.425Z,4.80
2018-12-19T15:19:21.668Z,4.70
2018-12-19T15:21:49.839Z,4.70
2018-12-19T15:24:18.067Z,4.70
2018-12-19T15:26:46.405Z,4.80
2018-12-19T15:29:14.636Z,4.80
2018-12-19T15:31:42.873Z,4.80
2018-12-19T15:34:11.115Z,4.80
2018-12-19T15:36:39.512Z,4.70
2018-12-19T15:39:07.960Z,4.70
2018-12-19T15:41:36.157Z,4.70
2018-12-19T15:44:04.442Z,4.80
2018-12-19T15:46:32.677Z,4.80
2018-12-19T15:49:00.855Z,4.80
2018-12-19T15:51:29.111Z,4.80
2018-12-19T15:53:57.351Z,4.80
2018-12-19T15:56:25.739Z,4.80
2018-12-19T15:58:53.968Z,4.80
2018-12-19T16:01:22.156Z,4.80
2018-12-19T16:03:50.330Z,4.80
2018-12-19T16:06:18.526Z,4.90
2018-12-19T16:08:46.665Z,4.80
2018-12-19T16:11:14.965Z,4.90
2018-12-19T16:13:43.350Z,4.90
2018-12-19T16:16:11.567Z,5.00
2018-12-19T16:18:39.904Z,5.00
2018-12-19T16:21:08.115Z,5.00
2018-12-19T16:23:36.375Z,5.00
2018-12-19T16:26:04.888Z,5.10
2018-12-19T16:28:33.069Z,5.00
2018-12-19T16:31:01.286Z,5.10
2018-12-19T16:33:29.544Z,5.10
2018-12-19T16:35:57.713Z,5.10
2018-12-19T16:38:25.882Z,5.10
2018-12-19T16:40:54.061Z,5.10
2018-12-19T16:43:22.275Z,5.10
2018-12-19T16:45:50.500Z,5.10
2018-12-19T16:48:18.837Z,5.10
2018-12-19T16:50:47.072Z,5.10
2018-12-19T16:53:15.369Z,5.20
2018-12-19T16:55:43.658Z,5.20
2018-12-19T16:58:11.840Z,5.20
2018-12-19T17:00:40.160Z,5.10
2018-12-19T17:03:08.429Z,5.20
2018-12-19T17:05:36.662Z,5.10
2018-12-19T17:08:04.907Z,5.10
2018-12-19T17:10:35.126Z,5.10
2018-12-19T17:13:03.644Z,5.10
2018-12-19T17:15:31.917Z,5.20
2018-12-19T17:18:00.113Z,5.20
2018-12-19T17:20:28.348Z,5.20
2018-12-19T17:22:56.514Z,5.20
2018-12-19T17:25:24.694Z,5.20
2018-12-19T17:27:53.012Z,5.30
2018-12-19T17:30:21.456Z,5.20
2018-12-19T17:32:49.631Z,5.30
2018-12-19T17:35:17.932Z,5.30
2018-12-19T17:37:46.108Z,5.20
2018-12-19T17:40:14.269Z,5.20
2018-12-19T17:42:42.679Z,5.20
2018-12-19T17:45:11.105Z,5.30
2018-12-19T17:47:39.427Z,5.30
2018-12-19T17:50:07.700Z,5.20
2018-12-19T17:52:35.920Z,5.30
2018-12-19T17:55:04.787Z,5.30
2018-12-19T17:57:33.026Z,5.30
2018-12-19T18:00:01.295Z,5.40
2018-12-19T18:02:29.548Z,5.30
2018-12-19T18:04:57.863Z,5.30
2018-12-19T18:07:26.116Z,5.30
2018-12-19T18:09:54.257Z,5.30
2018-12-19T18:12:22.468Z,5.20
2018-12-19T18:14:50.671Z,5.20
2018-12-19T18:17:18.964Z,5.20
2018-12-19T18:19:47.217Z,5.20
2018-12-19T18:22:16.265Z,5.20
2018-12-19T18:24:44.470Z,5.10
2018-12-19T18:27:12.763Z,5.20
2018-12-19T18:29:41.250Z,5.20
2018-12-19T18:32:09.408Z,5.20
2018-12-19T18:34:37.603Z,5.40
2018-12-19T18:37:05.815Z,5.40
2018-12-19T18:39:34.014Z,5.30
2018-12-19T18:42:02.320Z,5.40
2018-12-19T18:44:30.536Z,5.40
2018-12-19T18:46:58.747Z,5.30
2018-12-19T18:49:26.962Z,5.40
2018-12-19T18:51:55.213Z,5.40
2018-12-19T18:54:23.528Z,5.40
2018-12-19T18:56:51.712Z,5.40
2018-12-19T18:59:20.096Z,5.40
2018-12-19T19:01:48.636Z,5.40
2018-12-19T19:04:16.910Z,5.30
2018-12-19T19:06:45.178Z,5.40
2018-12-19T19:09:13.441Z,5.40
2018-12-19T19:11:41.645Z,5.40
2018-12-19T19:14:09.843Z,5.40
2018-12-19T19:16:38.035Z,5.40
2018-12-19T19:19:06.226Z,5.40
2018-12-19T19:21:34.422Z,5.30
2018-12-19T19:24:02.707Z,5.30
2018-12-19T19:26:30.939Z,5.40
2018-12-19T19:28:59.277Z,5.40
2018-12-19T19:31:27.523Z,5.40
2018-12-19T19:33:55.711Z,5.40
2018-12-19T19:36:24.006Z,5.40
2018-12-19T19:38:52.378Z,5.30
2018-12-19T19:41:20.591Z,5.40
2018-12-19T19:43:48.771Z,5.30
2018-12-19T19:46:17.044Z,5.40
2018-12-19T19:48:45.282Z,5.40
2018-12-19T19:51:16.877Z,5.50
2018-12-19T19:53:43.901Z,5.40
2018-12-19T19:56:12.158Z,5.30
2018-12-19T19:58:40.365Z,5.30
2018-12-19T20:01:08.556Z,5.40
2018-12-19T20:03:37.358Z,5.40
2018-12-19T20:06:05.540Z,5.30
2018-12-19T20:08:33.735Z,5.40
2018-12-19T20:11:01.975Z,5.40
2018-12-19T20:13:33.286Z,5.40
2018-12-19T20:16:00.634Z,5.40
2018-12-19T20:18:28.832Z,5.40
2018-12-19T20:20:57.074Z,5.40
2018-12-19T20:23:25.232Z,5.40
2018-12-19T20:25:53.536Z,5.40
2018-12-19T20:28:21.789Z,5.50
2018-12-19T20:30:50.089Z,5.50
2018-12-19T20:33:18.276Z,5.60
2018-12-19T20:35:46.504Z,5.60
2018-12-19T20:38:14.759Z,5.50
2018-12-19T20:40:42.986Z,5.60
2018-12-19T20:43:11.135Z,5.60
2018-12-19T20:45:39.318Z,5.60
2018-12-19T20:48:07.625Z,5.60
2018-12-19T20:50:35.893Z,5.60
2018-12-19T20:53:04.137Z,5.60
2018-12-19T20:55:32.313Z,5.50
2018-12-19T20:58:00.499Z,5.50
2018-12-19T21:00:28.821Z,5.60
2018-12-19T21:02:57.019Z,5.50
2018-12-19T21:05:25.260Z,5.60
2018-12-19T21:07:53.522Z,5.60
2018-12-19T21:10:21.806Z,5.50
2018-12-19T21:12:49.974Z,5.50
2018-12-19T21:15:18.227Z,5.60
2018-12-19T21:17:52.453Z,5.50
2018-12-19T21:20:20.764Z,5.50
2018-12-19T21:22:49.849Z,5.60
2018-12-19T21:25:18.144Z,5.60
2018-12-19T21:27:46.344Z,5.60
2018-12-19T21:30:14.672Z,5.60
2018-12-19T21:32:43.559Z,5.60
2018-12-19T21:35:12.182Z,5.50
2018-12-19T21:37:40.380Z,5.60
2018-12-19T21:40:09.094Z,5.60
2018-12-19T21:42:37.504Z,5.50
2018-12-19T21:45:06.501Z,5.50
2018-12-19T21:47:34.677Z,5.50
2018-12-19T21:50:03.033Z,5.40
2018-12-19T21:52:31.281Z,5.50
2018-12-19T21:54:59.760Z,5.40
2018-12-19T21:57:28.123Z,5.40
2018-12-19T21:59:56.320Z,5.50
2018-12-19T22:02:24.517Z,5.50
2018-12-19T22:04:52.904Z,5.50
2018-12-19T22:07:21.234Z,5.50
2018-12-19T22:09:49.651Z,5.50
2018-12-19T22:12:17.954Z,5.50
2018-12-19T22:14:46.274Z,5.50
2018-12-19T22:17:20.094Z,5.60
2018-12-19T22:19:48.297Z,5.50
2018-12-19T22:22:16.662Z,5.50
2018-12-19T22:24:44.886Z,5.50
2018-12-19T22:27:13.223Z,5.40
2018-12-19T22:29:41.576Z,5.40
2018-12-19T22:32:09.998Z,5.50
2018-12-19T22:34:38.278Z,5.40
2018-12-19T22:37:06.520Z,5.40
2018-12-19T22:39:34.788Z,5.40
2018-12-19T22:42:03.219Z,5.40
2018-12-19T22:44:31.558Z,5.40
2018-12-19T22:46:59.804Z,5.40
2018-12-19T22:49:28.155Z,5.40
2018-12-19T22:51:56.408Z,5.40
2018-12-19T22:54:24.636Z,5.40
2018-12-19T22:56:52.952Z,5.40
2018-12-19T22:59:21.469Z,5.40
2018-12-19T23:01:55.499Z,5.40
2018-12-19T23:04:25.533Z,5.40
2018-12-19T23:06:56.107Z,5.30
2018-12-19T23:09:24.396Z,5.30
2018-12-19T23:11:52.650Z,5.30
2018-12-19T23:14:21.079Z,5.30
2018-12-19T23:16:49.495Z,5.30
2018-12-19T23:19:17.802Z,5.20
2018-12-19T23:21:46.068Z,5.30
2018-12-19T23:24:14.276Z,5.30
2018-12-19T23:26:42.594Z,5.30
2018-12-19T23:29:10.906Z,5.30
2018-12-19T23:31:39.401Z,5.30
2018-12-19T23:34:07.557Z,5.30
2018-12-19T23:36:35.731Z,5.20
2018-12-19T23:39:06.271Z,5.20
2018-12-19T23:41:34.617Z,5.20
2018-12-19T23:44:02.790Z,5.20
2018-12-19T23:46:33.067Z,5.20
2018-12-19T23:49:01.233Z,5.10
2018-12-19T23:51:29.380Z,5.10
2018-12-19T23:53:57.687Z,5.20
2018-12-19T23:56:26.250Z,5.10
2018-12-19T23:58:54.806Z,5.10
